sensor_id;sensor_type;location;lat;lon;timestamp;P1;durP1;ratioP1;P2;durP2;ratioP2
48552;SDS011;34335;51.566;6.994;2023-06-10T00:01:18;7.47;;;4.18;;
48552;SDS011;34335;51.566;6.994;2023-06-10T00:03:43;7.57;;;4.13;;
48552;SDS011;34335;51.566;6.994;2023-06-10T00:06:08;8.27;;;3.60;;
48552;SDS011;34335;51.566;6.994;2023-06-10T00:08:34;6.30;;;3.53;;
48552;SDS011;34335;51.566;6.994;2023-06-10T00:10:59;5.90;;;4.30;;
48552;SDS011;34335;51.566;6.994;2023-06-10T00:13:25;5.65;;;3.53;;
48552;SDS011;34335;51.566;6.994;2023-06-10T00:15:50;6.63;;;3.57;;
48552;SDS011;34335;51.566;6.994;2023-06-10T00:18:15;6.07;;;4.15;;
48552;SDS011;34335;51.566;6.994;2023-06-10T00:20:42;7.38;;;4.15;;
48552;SDS011;34335;51.566;6.994;2023-06-10T00:23:07;6.22;;;3.90;;
48552;SDS011;34335;51.566;6.994;2023-06-10T00:25:34;7.00;;;4.45;;
48552;SDS011;34335;51.566;6.994;2023-06-10T00:28:00;6.22;;;3.67;;
48552;SDS011;34335;51.566;6.994;2023-06-10T00:30:25;6.63;;;4.10;;
48552;SDS011;34335;51.566;6.994;2023-06-10T00:32:51;8.15;;;5.93;;
48552;SDS011;34335;51.566;6.994;2023-06-10T00:35:16;6.40;;;4.00;;
48552;SDS011;34335;51.566;6.994;2023-06-10T00:37:41;7.13;;;3.97;;
48552;SDS011;34335;51.566;6.994;2023-06-10T00:40:07;8.67;;;3.97;;
48552;SDS011;34335;51.566;6.994;2023-06-10T00:42:34;8.10;;;3.85;;
48552;SDS011;34335;51.566;6.994;2023-06-10T00:44:59;7.32;;;4.45;;
48552;SDS011;34335;51.566;6.994;2023-06-10T00:47:25;6.47;;;4.03;;
48552;SDS011;34335;51.566;6.994;2023-06-10T00:49:51;6.80;;;3.90;;
48552;SDS011;34335;51.566;6.994;2023-06-10T00:52:17;5.97;;;4.13;;
48552;SDS011;34335;51.566;6.994;2023-06-10T00:54:44;4.75;;;3.50;;
48552;SDS011;34335;51.566;6.994;2023-06-10T00:57:10;8.63;;;4.30;;
48552;SDS011;34335;51.566;6.994;2023-06-10T00:59:37;7.97;;;4.60;;
48552;SDS011;34335;51.566;6.994;2023-06-10T01:02:04;5.70;;;3.65;;
48552;SDS011;34335;51.566;6.994;2023-06-10T01:04:30;4.82;;;3.38;;
48552;SDS011;34335;51.566;6.994;2023-06-10T01:09:35;8.88;;;4.03;;
48552;SDS011;34335;51.566;6.994;2023-06-10T01:14:48;10.23;;;3.75;;
48552;SDS011;34335;51.566;6.994;2023-06-10T01:17:15;7.05;;;4.15;;
48552;SDS011;34335;51.566;6.994;2023-06-10T01:19:43;10.70;;;4.05;;
48552;SDS011;34335;51.566;6.994;2023-06-10T01:22:09;7.20;;;4.55;;
48552;SDS011;34335;51.566;6.994;2023-06-10T01:24:35;8.27;;;4.38;;
48552;SDS011;34335;51.566;6.994;2023-06-10T01:27:02;6.03;;;4.07;;
48552;SDS011;34335;51.566;6.994;2023-06-10T01:29:36;6.78;;;4.03;;
48552;SDS011;34335;51.566;6.994;2023-06-10T01:32:06;7.07;;;4.13;;
48552;SDS011;34335;51.566;6.994;2023-06-10T01:34:39;7.65;;;4.82;;
48552;SDS011;34335;51.566;6.994;2023-06-10T01:37:07;6.18;;;3.88;;
48552;SDS011;34335;51.566;6.994;2023-06-10T01:39:34;6.30;;;4.05;;
48552;SDS011;34335;51.566;6.994;2023-06-10T01:42:01;6.70;;;3.60;;
48552;SDS011;34335;51.566;6.994;2023-06-10T01:44:27;6.18;;;4.25;;
48552;SDS011;34335;51.566;6.994;2023-06-10T01:46:52;6.90;;;4.13;;
48552;SDS011;34335;51.566;6.994;2023-06-10T01:49:18;6.03;;;4.10;;
48552;SDS011;34335;51.566;6.994;2023-06-10T01:51:43;6.55;;;4.40;;
48552;SDS011;34335;51.566;6.994;2023-06-10T01:54:08;8.87;;;4.73;;
48552;SDS011;34335;51.566;6.994;2023-06-10T01:56:34;6.55;;;3.78;;
48552;SDS011;34335;51.566;6.994;2023-06-10T01:58:59;5.23;;;3.80;;
48552;SDS011;34335;51.566;6.994;2023-06-10T02:01:27;8.55;;;4.15;;
48552;SDS011;34335;51.566;6.994;2023-06-10T02:03:54;8.07;;;4.85;;
48552;SDS011;34335;51.566;6.994;2023-06-10T02:06:19;7.45;;;4.65;;
48552;SDS011;34335;51.566;6.994;2023-06-10T02:08:45;7.03;;;4.45;;
48552;SDS011;34335;51.566;6.994;2023-06-10T02:11:10;6.13;;;4.10;;
48552;SDS011;34335;51.566;6.994;2023-06-10T02:13:36;7.35;;;4.40;;
48552;SDS011;34335;51.566;6.994;2023-06-10T02:16:02;9.85;;;4.32;;
48552;SDS011;34335;51.566;6.994;2023-06-10T02:18:28;7.80;;;4.13;;
48552;SDS011;34335;51.566;6.994;2023-06-10T02:20:54;8.15;;;4.55;;
48552;SDS011;34335;51.566;6.994;2023-06-10T02:23:19;5.97;;;4.22;;
48552;SDS011;34335;51.566;6.994;2023-06-10T02:25:44;5.32;;;3.75;;
48552;SDS011;34335;51.566;6.994;2023-06-10T02:28:10;6.30;;;4.50;;
48552;SDS011;34335;51.566;6.994;2023-06-10T02:30:38;6.50;;;4.20;;
48552;SDS011;34335;51.566;6.994;2023-06-10T02:33:05;7.60;;;4.38;;
48552;SDS011;34335;51.566;6.994;2023-06-10T02:35:34;6.97;;;4.82;;
48552;SDS011;34335;51.566;6.994;2023-06-10T02:38:00;7.63;;;4.22;;
48552;SDS011;34335;51.566;6.994;2023-06-10T02:40:25;9.70;;;4.57;;
48552;SDS011;34335;51.566;6.994;2023-06-10T02:42:50;7.40;;;4.23;;
48552;SDS011;34335;51.566;6.994;2023-06-10T02:45:16;9.10;;;5.03;;
48552;SDS011;34335;51.566;6.994;2023-06-10T02:47:41;6.97;;;4.20;;
48552;SDS011;34335;51.566;6.994;2023-06-10T02:50:07;6.37;;;4.23;;
48552;SDS011;34335;51.566;6.994;2023-06-10T02:52:32;7.85;;;4.43;;
48552;SDS011;34335;51.566;6.994;2023-06-10T02:54:57;7.50;;;3.70;;
48552;SDS011;34335;51.566;6.994;2023-06-10T02:57:23;6.83;;;4.10;;
48552;SDS011;34335;51.566;6.994;2023-06-10T02:59:48;6.53;;;3.83;;
48552;SDS011;34335;51.566;6.994;2023-06-10T03:02:13;7.30;;;4.28;;
48552;SDS011;34335;51.566;6.994;2023-06-10T03:04:39;6.07;;;4.20;;
48552;SDS011;34335;51.566;6.994;2023-06-10T03:07:04;6.53;;;4.57;;
48552;SDS011;34335;51.566;6.994;2023-06-10T03:09:32;6.68;;;4.15;;
48552;SDS011;34335;51.566;6.994;2023-06-10T03:11:57;6.75;;;4.10;;
48552;SDS011;34335;51.566;6.994;2023-06-10T03:14:22;8.00;;;3.78;;
48552;SDS011;34335;51.566;6.994;2023-06-10T03:16:49;7.18;;;3.42;;
48552;SDS011;34335;51.566;6.994;2023-06-10T03:19:15;6.00;;;3.77;;
48552;SDS011;34335;51.566;6.994;2023-06-10T03:21:43;7.05;;;3.47;;
48552;SDS011;34335;51.566;6.994;2023-06-10T03:24:09;6.47;;;3.63;;
48552;SDS011;34335;51.566;6.994;2023-06-10T03:26:35;6.63;;;3.60;;
48552;SDS011;34335;51.566;6.994;2023-06-10T03:29:01;5.53;;;3.75;;
48552;SDS011;34335;51.566;6.994;2023-06-10T03:31:26;6.45;;;4.22;;
48552;SDS011;34335;51.566;6.994;2023-06-10T03:33:51;7.03;;;3.80;;
48552;SDS011;34335;51.566;6.994;2023-06-10T03:36:17;6.60;;;3.80;;
48552;SDS011;34335;51.566;6.994;2023-06-10T03:38:42;7.97;;;4.03;;
48552;SDS011;34335;51.566;6.994;2023-06-10T03:41:07;5.40;;;3.77;;
48552;SDS011;34335;51.566;6.994;2023-06-10T03:43:32;6.63;;;3.83;;
48552;SDS011;34335;51.566;6.994;2023-06-10T03:45:58;5.72;;;3.58;;
48552;SDS011;34335;51.566;6.994;2023-06-10T03:48:23;6.27;;;3.73;;
48552;SDS011;34335;51.566;6.994;2023-06-10T03:50:49;6.88;;;4.40;;
48552;SDS011;34335;51.566;6.994;2023-06-10T03:53:18;10.30;;;4.22;;
48552;SDS011;34335;51.566;6.994;2023-06-10T03:55:43;6.28;;;3.58;;
48552;SDS011;34335;51.566;6.994;2023-06-10T03:58:10;10.80;;;3.10;;
48552;SDS011;34335;51.566;6.994;2023-06-10T04:00:38;4.55;;;2.97;;
48552;SDS011;34335;51.566;6.994;2023-06-10T04:03:07;6.80;;;3.55;;
48552;SDS011;34335;51.566;6.994;2023-06-10T04:05:39;4.82;;;3.22;;
48552;SDS011;34335;51.566;6.994;2023-06-10T04:08:05;5.82;;;3.42;;
48552;SDS011;34335;51.566;6.994;2023-06-10T04:10:31;5.53;;;3.28;;
48552;SDS011;34335;51.566;6.994;2023-06-10T04:12:57;6.53;;;3.50;;
48552;SDS011;34335;51.566;6.994;2023-06-10T04:15:22;6.70;;;3.37;;
48552;SDS011;34335;51.566;6.994;2023-06-10T04:17:47;7.57;;;3.35;;
48552;SDS011;34335;51.566;6.994;2023-06-10T04:20:14;5.35;;;3.22;;
48552;SDS011;34335;51.566;6.994;2023-06-10T04:22:40;5.40;;;3.25;;
48552;SDS011;34335;51.566;6.994;2023-06-10T04:25:06;8.40;;;3.72;;
48552;SDS011;34335;51.566;6.994;2023-06-10T04:27:32;6.63;;;3.50;;
48552;SDS011;34335;51.566;6.994;2023-06-10T04:29:58;5.60;;;2.85;;
48552;SDS011;34335;51.566;6.994;2023-06-10T04:32:23;5.93;;;3.10;;
48552;SDS011;34335;51.566;6.994;2023-06-10T04:34:48;5.00;;;3.03;;
48552;SDS011;34335;51.566;6.994;2023-06-10T04:37:14;4.55;;;2.92;;
48552;SDS011;34335;51.566;6.994;2023-06-10T04:39:39;9.52;;;2.90;;
48552;SDS011;34335;51.566;6.994;2023-06-10T04:42:06;5.95;;;3.33;;
48552;SDS011;34335;51.566;6.994;2023-06-10T04:44:32;5.47;;;3.15;;
48552;SDS011;34335;51.566;6.994;2023-06-10T04:46:57;6.60;;;2.97;;
48552;SDS011;34335;51.566;6.994;2023-06-10T04:49:22;5.03;;;3.10;;
48552;SDS011;34335;51.566;6.994;2023-06-10T04:51:47;8.70;;;3.40;;
48552;SDS011;34335;51.566;6.994;2023-06-10T04:54:13;5.00;;;2.70;;
48552;SDS011;34335;51.566;6.994;2023-06-10T04:56:38;4.88;;;2.63;;
48552;SDS011;34335;51.566;6.994;2023-06-10T04:59:04;5.00;;;3.00;;
48552;SDS011;34335;51.566;6.994;2023-06-10T05:01:29;5.13;;;2.75;;
48552;SDS011;34335;51.566;6.994;2023-06-10T05:03:54;5.80;;;2.70;;
48552;SDS011;34335;51.566;6.994;2023-06-10T05:06:20;6.13;;;3.17;;
48552;SDS011;34335;51.566;6.994;2023-06-10T05:08:45;6.82;;;2.88;;
48552;SDS011;34335;51.566;6.994;2023-06-10T05:11:11;7.60;;;2.97;;
48552;SDS011;34335;51.566;6.994;2023-06-10T05:13:36;7.37;;;2.87;;
48552;SDS011;34335;51.566;6.994;2023-06-10T05:16:01;5.57;;;2.57;;
48552;SDS011;34335;51.566;6.994;2023-06-10T05:18:27;6.60;;;2.58;;
48552;SDS011;34335;51.566;6.994;2023-06-10T05:20:52;6.10;;;2.42;;
48552;SDS011;34335;51.566;6.994;2023-06-10T05:23:19;5.90;;;3.03;;
48552;SDS011;34335;51.566;6.994;2023-06-10T05:25:44;4.13;;;2.55;;
48552;SDS011;34335;51.566;6.994;2023-06-10T05:28:10;3.97;;;2.58;;
48552;SDS011;34335;51.566;6.994;2023-06-10T05:30:36;6.82;;;3.53;;
48552;SDS011;34335;51.566;6.994;2023-06-10T05:33:01;6.00;;;3.33;;
48552;SDS011;34335;51.566;6.994;2023-06-10T05:35:28;4.55;;;2.90;;
48552;SDS011;34335;51.566;6.994;2023-06-10T05:37:53;5.80;;;2.80;;
48552;SDS011;34335;51.566;6.994;2023-06-10T05:40:18;4.33;;;2.53;;
48552;SDS011;34335;51.566;6.994;2023-06-10T05:42:43;6.97;;;3.08;;
48552;SDS011;34335;51.566;6.994;2023-06-10T05:45:09;3.90;;;2.33;;
48552;SDS011;34335;51.566;6.994;2023-06-10T05:47:34;5.63;;;3.08;;
48552;SDS011;34335;51.566;6.994;2023-06-10T05:50:00;5.20;;;3.20;;
48552;SDS011;34335;51.566;6.994;2023-06-10T05:52:25;6.13;;;2.53;;
48552;SDS011;34335;51.566;6.994;2023-06-10T05:54:51;5.97;;;3.20;;
48552;SDS011;34335;51.566;6.994;2023-06-10T05:57:16;6.25;;;3.22;;
48552;SDS011;34335;51.566;6.994;2023-06-10T05:59:41;5.65;;;2.85;;
48552;SDS011;34335;51.566;6.994;2023-06-10T06:02:07;7.53;;;3.60;;
48552;SDS011;34335;51.566;6.994;2023-06-10T06:04:32;6.82;;;3.13;;
48552;SDS011;34335;51.566;6.994;2023-06-10T06:06:58;5.10;;;2.75;;
48552;SDS011;34335;51.566;6.994;2023-06-10T06:09:23;8.07;;;3.08;;
48552;SDS011;34335;51.566;6.994;2023-06-10T06:11:49;8.87;;;3.17;;
48552;SDS011;34335;51.566;6.994;2023-06-10T06:14:14;11.63;;;4.20;;
48552;SDS011;34335;51.566;6.994;2023-06-10T06:16:39;5.47;;;2.75;;
48552;SDS011;34335;51.566;6.994;2023-06-10T06:19:05;12.13;;;3.55;;
48552;SDS011;34335;51.566;6.994;2023-06-10T06:21:30;16.27;;;3.70;;
48552;SDS011;34335;51.566;6.994;2023-06-10T06:23:55;6.80;;;3.23;;
48552;SDS011;34335;51.566;6.994;2023-06-10T06:26:20;7.68;;;3.22;;
48552;SDS011;34335;51.566;6.994;2023-06-10T06:28:46;11.00;;;2.93;;
48552;SDS011;34335;51.566;6.994;2023-06-10T06:31:11;4.97;;;2.13;;
48552;SDS011;34335;51.566;6.994;2023-06-10T06:33:36;4.95;;;2.58;;
48552;SDS011;34335;51.566;6.994;2023-06-10T06:36:02;5.97;;;3.08;;
48552;SDS011;34335;51.566;6.994;2023-06-10T06:38:27;4.72;;;2.85;;
48552;SDS011;34335;51.566;6.994;2023-06-10T06:40:52;8.43;;;3.73;;
48552;SDS011;34335;51.566;6.994;2023-06-10T06:43:18;5.18;;;2.38;;
48552;SDS011;34335;51.566;6.994;2023-06-10T06:45:43;10.97;;;3.17;;
48552;SDS011;34335;51.566;6.994;2023-06-10T06:48:10;6.15;;;2.25;;
48552;SDS011;34335;51.566;6.994;2023-06-10T06:50:36;4.32;;;2.15;;
48552;SDS011;34335;51.566;6.994;2023-06-10T06:53:02;4.45;;;2.50;;
48552;SDS011;34335;51.566;6.994;2023-06-10T06:55:27;6.55;;;3.15;;
48552;SDS011;34335;51.566;6.994;2023-06-10T06:57:52;4.60;;;2.47;;
48552;SDS011;34335;51.566;6.994;2023-06-10T07:00:18;4.77;;;2.20;;
48552;SDS011;34335;51.566;6.994;2023-06-10T07:02:43;4.90;;;2.42;;
48552;SDS011;34335;51.566;6.994;2023-06-10T07:05:09;6.17;;;2.57;;
48552;SDS011;34335;51.566;6.994;2023-06-10T07:07:34;6.95;;;2.70;;
48552;SDS011;34335;51.566;6.994;2023-06-10T07:09:59;4.97;;;2.50;;
48552;SDS011;34335;51.566;6.994;2023-06-10T07:12:25;5.70;;;2.53;;
48552;SDS011;34335;51.566;6.994;2023-06-10T07:14:50;6.05;;;2.85;;
48552;SDS011;34335;51.566;6.994;2023-06-10T07:17:16;3.08;;;1.95;;
48552;SDS011;34335;51.566;6.994;2023-06-10T07:19:42;6.10;;;2.63;;
48552;SDS011;34335;51.566;6.994;2023-06-10T07:22:08;5.55;;;2.17;;
48552;SDS011;34335;51.566;6.994;2023-06-10T07:24:34;5.57;;;2.38;;
48552;SDS011;34335;51.566;6.994;2023-06-10T07:26:59;5.63;;;2.70;;
48552;SDS011;34335;51.566;6.994;2023-06-10T07:29:24;3.70;;;2.10;;
48552;SDS011;34335;51.566;6.994;2023-06-10T07:31:50;4.27;;;2.67;;
48552;SDS011;34335;51.566;6.994;2023-06-10T07:34:15;6.03;;;3.00;;
48552;SDS011;34335;51.566;6.994;2023-06-10T07:36:40;5.20;;;2.33;;
48552;SDS011;34335;51.566;6.994;2023-06-10T07:39:05;4.83;;;2.20;;
48552;SDS011;34335;51.566;6.994;2023-06-10T07:41:32;3.72;;;2.28;;
48552;SDS011;34335;51.566;6.994;2023-06-10T07:43:57;3.92;;;1.98;;
48552;SDS011;34335;51.566;6.994;2023-06-10T07:46:23;4.97;;;2.78;;
48552;SDS011;34335;51.566;6.994;2023-06-10T07:48:48;3.63;;;1.92;;
48552;SDS011;34335;51.566;6.994;2023-06-10T07:51:17;4.63;;;2.30;;
48552;SDS011;34335;51.566;6.994;2023-06-10T07:53:42;4.43;;;2.78;;
48552;SDS011;34335;51.566;6.994;2023-06-10T07:56:08;6.15;;;2.35;;
48552;SDS011;34335;51.566;6.994;2023-06-10T07:58:33;4.93;;;2.07;;
48552;SDS011;34335;51.566;6.994;2023-06-10T08:00:58;3.80;;;2.10;;
48552;SDS011;34335;51.566;6.994;2023-06-10T08:03:23;8.53;;;3.17;;
48552;SDS011;34335;51.566;6.994;2023-06-10T08:05:49;4.78;;;2.63;;
48552;SDS011;34335;51.566;6.994;2023-06-10T08:08:14;4.35;;;2.63;;
48552;SDS011;34335;51.566;6.994;2023-06-10T08:10:39;5.63;;;2.50;;
48552;SDS011;34335;51.566;6.994;2023-06-10T08:13:05;4.10;;;2.10;;
48552;SDS011;34335;51.566;6.994;2023-06-10T08:15:30;5.07;;;2.97;;
48552;SDS011;34335;51.566;6.994;2023-06-10T08:17:55;4.60;;;2.83;;
48552;SDS011;34335;51.566;6.994;2023-06-10T08:20:24;4.75;;;2.40;;
48552;SDS011;34335;51.566;6.994;2023-06-10T08:22:50;4.68;;;2.35;;
48552;SDS011;34335;51.566;6.994;2023-06-10T08:25:15;4.97;;;3.03;;
48552;SDS011;34335;51.566;6.994;2023-06-10T08:27:40;4.60;;;2.60;;
48552;SDS011;34335;51.566;6.994;2023-06-10T08:30:06;4.07;;;2.17;;
48552;SDS011;34335;51.566;6.994;2023-06-10T08:32:32;6.60;;;2.35;;
48552;SDS011;34335;51.566;6.994;2023-06-10T08:34:57;4.27;;;2.10;;
48552;SDS011;34335;51.566;6.994;2023-06-10T08:37:22;4.80;;;2.60;;
48552;SDS011;34335;51.566;6.994;2023-06-10T08:39:48;5.10;;;2.53;;
48552;SDS011;34335;51.566;6.994;2023-06-10T08:44:54;3.88;;;2.03;;
48552;SDS011;34335;51.566;6.994;2023-06-10T08:47:20;4.82;;;2.53;;
48552;SDS011;34335;51.566;6.994;2023-06-10T08:49:48;6.03;;;2.03;;
48552;SDS011;34335;51.566;6.994;2023-06-10T08:52:14;3.85;;;2.40;;
48552;SDS011;34335;51.566;6.994;2023-06-10T08:54:42;7.05;;;2.25;;
48552;SDS011;34335;51.566;6.994;2023-06-10T08:57:11;5.53;;;2.55;;
48552;SDS011;34335;51.566;6.994;2023-06-10T08:59:37;6.57;;;3.10;;
48552;SDS011;34335;51.566;6.994;2023-06-10T09:02:03;5.55;;;2.80;;
48552;SDS011;34335;51.566;6.994;2023-06-10T09:04:29;4.35;;;2.30;;
48552;SDS011;34335;51.566;6.994;2023-06-10T09:06:55;4.43;;;2.78;;
48552;SDS011;34335;51.566;6.994;2023-06-10T09:09:22;5.30;;;2.63;;
48552;SDS011;34335;51.566;6.994;2023-06-10T09:11:49;5.60;;;2.72;;
48552;SDS011;34335;51.566;6.994;2023-06-10T09:14:14;4.43;;;2.70;;
48552;SDS011;34335;51.566;6.994;2023-06-10T09:16:41;5.43;;;2.95;;
48552;SDS011;34335;51.566;6.994;2023-06-10T09:19:07;4.53;;;2.60;;
48552;SDS011;34335;51.566;6.994;2023-06-10T09:21:35;4.63;;;2.58;;
48552;SDS011;34335;51.566;6.994;2023-06-10T09:24:01;3.47;;;2.35;;
48552;SDS011;34335;51.566;6.994;2023-06-10T09:26:27;4.00;;;2.35;;
48552;SDS011;34335;51.566;6.994;2023-06-10T09:28:57;5.63;;;2.42;;
48552;SDS011;34335;51.566;6.994;2023-06-10T09:31:39;6.25;;;2.58;;
48552;SDS011;34335;51.566;6.994;2023-06-10T09:34:12;3.90;;;2.25;;
48552;SDS011;34335;51.566;6.994;2023-06-10T09:36:39;4.22;;;2.67;;
48552;SDS011;34335;51.566;6.994;2023-06-10T09:39:05;4.28;;;2.70;;
48552;SDS011;34335;51.566;6.994;2023-06-10T09:41:40;6.13;;;2.67;;
48552;SDS011;34335;51.566;6.994;2023-06-10T09:44:11;4.97;;;2.80;;
48552;SDS011;34335;51.566;6.994;2023-06-10T09:46:38;4.97;;;2.60;;
48552;SDS011;34335;51.566;6.994;2023-06-10T09:49:03;5.20;;;2.65;;
48552;SDS011;34335;51.566;6.994;2023-06-10T09:51:28;4.83;;;2.30;;
48552;SDS011;34335;51.566;6.994;2023-06-10T09:53:54;5.20;;;2.40;;
48552;SDS011;34335;51.566;6.994;2023-06-10T09:56:19;3.72;;;2.47;;
48552;SDS011;34335;51.566;6.994;2023-06-10T09:58:45;3.85;;;2.22;;
48552;SDS011;34335;51.566;6.994;2023-06-10T10:01:12;4.40;;;2.65;;
48552;SDS011;34335;51.566;6.994;2023-06-10T10:06:17;4.28;;;2.33;;
48552;SDS011;34335;51.566;6.994;2023-06-10T10:08:43;6.00;;;2.63;;
48552;SDS011;34335;51.566;6.994;2023-06-10T10:11:10;5.32;;;3.13;;
48552;SDS011;34335;51.566;6.994;2023-06-10T10:13:36;4.82;;;3.00;;
48552;SDS011;34335;51.566;6.994;2023-06-10T10:16:15;7.25;;;2.78;;
48552;SDS011;34335;51.566;6.994;2023-06-10T10:18:43;5.15;;;2.97;;
48552;SDS011;34335;51.566;6.994;2023-06-10T10:21:13;5.85;;;2.90;;
48552;SDS011;34335;51.566;6.994;2023-06-10T10:23:44;4.65;;;2.35;;
48552;SDS011;34335;51.566;6.994;2023-06-10T10:26:18;4.63;;;2.90;;
48552;SDS011;34335;51.566;6.994;2023-06-10T10:28:51;5.40;;;2.90;;
48552;SDS011;34335;51.566;6.994;2023-06-10T10:31:23;7.03;;;2.88;;
48552;SDS011;34335;51.566;6.994;2023-06-10T10:33:57;4.45;;;2.42;;
48552;SDS011;34335;51.566;6.994;2023-06-10T10:36:24;6.72;;;2.33;;
48552;SDS011;34335;51.566;6.994;2023-06-10T10:38:50;5.40;;;2.80;;
48552;SDS011;34335;51.566;6.994;2023-06-10T10:41:16;3.88;;;2.50;;
48552;SDS011;34335;51.566;6.994;2023-06-10T10:43:43;4.13;;;2.45;;
48552;SDS011;34335;51.566;6.994;2023-06-10T10:46:13;5.55;;;3.05;;
48552;SDS011;34335;51.566;6.994;2023-06-10T10:48:41;5.53;;;2.78;;
48552;SDS011;34335;51.566;6.994;2023-06-10T10:51:07;4.82;;;2.47;;
48552;SDS011;34335;51.566;6.994;2023-06-10T10:53:33;7.55;;;2.88;;
48552;SDS011;34335;51.566;6.994;2023-06-10T10:55:59;4.13;;;2.70;;
48552;SDS011;34335;51.566;6.994;2023-06-10T10:58:29;5.18;;;2.50;;
48552;SDS011;34335;51.566;6.994;2023-06-10T11:00:55;4.20;;;2.72;;
48552;SDS011;34335;51.566;6.994;2023-06-10T11:03:20;5.03;;;2.50;;
48552;SDS011;34335;51.566;6.994;2023-06-10T11:05:46;5.03;;;2.97;;
48552;SDS011;34335;51.566;6.994;2023-06-10T11:08:15;5.30;;;2.70;;
48552;SDS011;34335;51.566;6.994;2023-06-10T11:11:20;4.10;;;2.85;;
48552;SDS011;34335;51.566;6.994;2023-06-10T11:16:29;5.45;;;2.85;;
48552;SDS011;34335;51.566;6.994;2023-06-10T11:18:54;4.40;;;2.90;;
48552;SDS011;34335;51.566;6.994;2023-06-10T11:21:21;4.93;;;2.50;;
48552;SDS011;34335;51.566;6.994;2023-06-10T11:23:49;5.80;;;3.13;;
48552;SDS011;34335;51.566;6.994;2023-06-10T11:33:54;5.60;;;3.65;;
48552;SDS011;34335;51.566;6.994;2023-06-10T11:36:21;6.25;;;2.85;;
48552;SDS011;34335;51.566;6.994;2023-06-10T11:38:46;7.93;;;3.10;;
48552;SDS011;34335;51.566;6.994;2023-06-10T11:41:13;4.60;;;2.72;;
48552;SDS011;34335;51.566;6.994;2023-06-10T11:43:44;4.47;;;2.47;;
48552;SDS011;34335;51.566;6.994;2023-06-10T11:46:11;4.75;;;2.75;;
48552;SDS011;34335;51.566;6.994;2023-06-10T11:48:39;4.50;;;2.55;;
48552;SDS011;34335;51.566;6.994;2023-06-10T11:51:14;3.83;;;2.35;;
48552;SDS011;34335;51.566;6.994;2023-06-10T11:53:39;4.37;;;2.80;;
48552;SDS011;34335;51.566;6.994;2023-06-10T11:56:04;4.77;;;2.90;;
48552;SDS011;34335;51.566;6.994;2023-06-10T11:58:29;4.00;;;2.77;;
48552;SDS011;34335;51.566;6.994;2023-06-10T12:00:55;4.80;;;2.63;;
48552;SDS011;34335;51.566;6.994;2023-06-10T12:03:26;4.45;;;3.08;;
48552;SDS011;34335;51.566;6.994;2023-06-10T12:06:02;4.93;;;2.85;;
48552;SDS011;34335;51.566;6.994;2023-06-10T12:08:28;4.25;;;2.28;;
48552;SDS011;34335;51.566;6.994;2023-06-10T12:10:54;5.15;;;2.85;;
48552;SDS011;34335;51.566;6.994;2023-06-10T12:13:21;4.80;;;2.92;;
48552;SDS011;34335;51.566;6.994;2023-06-10T12:15:48;6.03;;;3.00;;
48552;SDS011;34335;51.566;6.994;2023-06-10T12:18:21;3.67;;;2.45;;
48552;SDS011;34335;51.566;6.994;2023-06-10T12:20:48;5.22;;;3.28;;
48552;SDS011;34335;51.566;6.994;2023-06-10T12:23:15;4.18;;;2.70;;
48552;SDS011;34335;51.566;6.994;2023-06-10T12:25:50;4.57;;;3.08;;
48552;SDS011;34335;51.566;6.994;2023-06-10T12:28:20;4.80;;;2.83;;
48552;SDS011;34335;51.566;6.994;2023-06-10T12:30:46;3.47;;;2.65;;
48552;SDS011;34335;51.566;6.994;2023-06-10T12:35:55;4.57;;;2.63;;
48552;SDS011;34335;51.566;6.994;2023-06-10T12:38:24;9.15;;;2.70;;
48552;SDS011;34335;51.566;6.994;2023-06-10T12:40:54;7.18;;;2.78;;
48552;SDS011;34335;51.566;6.994;2023-06-10T12:43:25;5.80;;;2.88;;
48552;SDS011;34335;51.566;6.994;2023-06-10T12:45:51;5.47;;;3.47;;
48552;SDS011;34335;51.566;6.994;2023-06-10T12:48:23;4.65;;;2.60;;
48552;SDS011;34335;51.566;6.994;2023-06-10T12:53:22;4.60;;;2.78;;
48552;SDS011;34335;51.566;6.994;2023-06-10T12:55:48;4.65;;;3.72;;
48552;SDS011;34335;51.566;6.994;2023-06-10T12:58:14;6.68;;;3.17;;
48552;SDS011;34335;51.566;6.994;2023-06-10T13:00:40;6.53;;;2.80;;
48552;SDS011;34335;51.566;6.994;2023-06-10T13:03:07;6.63;;;2.95;;
48552;SDS011;34335;51.566;6.994;2023-06-10T13:05:33;5.28;;;2.63;;
48552;SDS011;34335;51.566;6.994;2023-06-10T13:08:01;5.95;;;2.88;;
48552;SDS011;34335;51.566;6.994;2023-06-10T13:10:26;4.30;;;2.90;;
48552;SDS011;34335;51.566;6.994;2023-06-10T13:12:52;4.70;;;3.08;;
48552;SDS011;34335;51.566;6.994;2023-06-10T13:15:19;4.35;;;2.78;;
48552;SDS011;34335;51.566;6.994;2023-06-10T13:17:44;6.70;;;3.10;;
48552;SDS011;34335;51.566;6.994;2023-06-10T13:20:16;5.07;;;3.13;;
48552;SDS011;34335;51.566;6.994;2023-06-10T13:22:42;4.15;;;2.80;;
48552;SDS011;34335;51.566;6.994;2023-06-10T13:25:07;4.65;;;3.08;;
48552;SDS011;34335;51.566;6.994;2023-06-10T13:27:36;4.57;;;2.83;;
48552;SDS011;34335;51.566;6.994;2023-06-10T13:32:31;5.70;;;2.80;;
48552;SDS011;34335;51.566;6.994;2023-06-10T13:34:57;5.73;;;2.90;;
48552;SDS011;34335;51.566;6.994;2023-06-10T13:37:22;6.03;;;2.60;;
48552;SDS011;34335;51.566;6.994;2023-06-10T13:39:48;4.32;;;2.55;;
48552;SDS011;34335;51.566;6.994;2023-06-10T13:42:15;5.00;;;3.13;;
48552;SDS011;34335;51.566;6.994;2023-06-10T13:44:44;4.43;;;2.80;;
48552;SDS011;34335;51.566;6.994;2023-06-10T13:47:09;4.20;;;2.92;;
48552;SDS011;34335;51.566;6.994;2023-06-10T13:49:35;4.72;;;3.00;;
48552;SDS011;34335;51.566;6.994;2023-06-10T13:52:01;3.72;;;2.88;;
48552;SDS011;34335;51.566;6.994;2023-06-10T13:54:26;3.45;;;2.60;;
48552;SDS011;34335;51.566;6.994;2023-06-10T13:56:52;7.65;;;2.95;;
48552;SDS011;34335;51.566;6.994;2023-06-10T13:59:18;4.00;;;2.80;;
48552;SDS011;34335;51.566;6.994;2023-06-10T14:01:44;4.95;;;2.92;;
48552;SDS011;34335;51.566;6.994;2023-06-10T14:04:09;4.28;;;2.53;;
48552;SDS011;34335;51.566;6.994;2023-06-10T14:06:35;4.78;;;3.10;;
48552;SDS011;34335;51.566;6.994;2023-06-10T14:09:00;4.33;;;2.70;;
48552;SDS011;34335;51.566;6.994;2023-06-10T14:11:26;5.80;;;3.30;;
48552;SDS011;34335;51.566;6.994;2023-06-10T14:13:51;4.03;;;2.90;;
48552;SDS011;34335;51.566;6.994;2023-06-10T14:16:16;5.07;;;2.72;;
48552;SDS011;34335;51.566;6.994;2023-06-10T14:18:42;4.55;;;2.67;;
48552;SDS011;34335;51.566;6.994;2023-06-10T14:21:07;5.10;;;3.13;;
48552;SDS011;34335;51.566;6.994;2023-06-10T14:23:32;4.78;;;2.88;;
48552;SDS011;34335;51.566;6.994;2023-06-10T14:25:58;4.43;;;2.78;;
48552;SDS011;34335;51.566;6.994;2023-06-10T14:28:24;4.97;;;2.50;;
48552;SDS011;34335;51.566;6.994;2023-06-10T14:30:51;5.25;;;2.80;;
48552;SDS011;34335;51.566;6.994;2023-06-10T14:33:16;3.90;;;2.60;;
48552;SDS011;34335;51.566;6.994;2023-06-10T14:35:41;4.90;;;2.53;;
48552;SDS011;34335;51.566;6.994;2023-06-10T14:38:08;3.70;;;2.30;;
48552;SDS011;34335;51.566;6.994;2023-06-10T14:40:33;5.05;;;2.75;;
48552;SDS011;34335;51.566;6.994;2023-06-10T14:42:58;5.37;;;2.87;;
48552;SDS011;34335;51.566;6.994;2023-06-10T14:45:26;5.78;;;2.70;;
48552;SDS011;34335;51.566;6.994;2023-06-10T14:47:51;5.13;;;2.97;;
48552;SDS011;34335;51.566;6.994;2023-06-10T14:50:16;4.93;;;2.70;;
48552;SDS011;34335;51.566;6.994;2023-06-10T14:52:42;5.97;;;2.80;;
48552;SDS011;34335;51.566;6.994;2023-06-10T14:55:07;4.73;;;2.87;;
48552;SDS011;34335;51.566;6.994;2023-06-10T14:57:33;3.92;;;2.70;;
48552;SDS011;34335;51.566;6.994;2023-06-10T14:59:58;4.87;;;2.90;;
48552;SDS011;34335;51.566;6.994;2023-06-10T15:02:23;4.30;;;2.70;;
48552;SDS011;34335;51.566;6.994;2023-06-10T15:04:49;4.32;;;2.53;;
48552;SDS011;34335;51.566;6.994;2023-06-10T15:07:14;4.77;;;2.67;;
48552;SDS011;34335;51.566;6.994;2023-06-10T15:09:40;7.70;;;3.10;;
48552;SDS011;34335;51.566;6.994;2023-06-10T15:12:06;4.18;;;2.70;;